sensor_id;sensor_type;location;lat;lon;timestamp;P1;durP1;ratioP1;P2;durP2;ratioP2
34317;SDS011;20582;52.196;20.952;2022-10-17T00:00:50;34.00;;;22.52;;
34317;SDS011;20582;52.196;20.952;2022-10-17T00:03:17;34.50;;;22.00;;
34317;SDS011;20582;52.196;20.952;2022-10-17T00:05:44;34.80;;;21.73;;
34317;SDS011;20582;52.196;20.952;2022-10-17T00:08:10;37.03;;;24.10;;
34317;SDS011;20582;52.196;20.952;2022-10-17T00:10:37;38.33;;;23.65;;
34317;SDS011;20582;52.196;20.952;2022-10-17T00:13:03;36.63;;;23.20;;
34317;SDS011;20582;52.196;20.952;2022-10-17T00:15:29;40.47;;;24.48;;
34317;SDS011;20582;52.196;20.952;2022-10-17T00:17:55;36.58;;;23.88;;
34317;SDS011;20582;52.196;20.952;2022-10-17T00:20:21;40.33;;;24.70;;
34317;SDS011;20582;52.196;20.952;2022-10-17T00:22:47;43.42;;;25.00;;
34317;SDS011;20582;52.196;20.952;2022-10-17T00:25:13;37.40;;;24.25;;
34317;SDS011;20582;52.196;20.952;2022-10-17T00:27:40;46.25;;;27.98;;
34317;SDS011;20582;52.196;20.952;2022-10-17T00:30:07;45.83;;;27.02;;
34317;SDS011;20582;52.196;20.952;2022-10-17T00:32:34;53.42;;;29.25;;
34317;SDS011;20582;52.196;20.952;2022-10-17T00:35:00;44.67;;;27.17;;
34317;SDS011;20582;52.196;20.952;2022-10-17T00:37:26;45.90;;;27.15;;
34317;SDS011;20582;52.196;20.952;2022-10-17T00:39:52;45.88;;;28.50;;
34317;SDS011;20582;52.196;20.952;2022-10-17T00:42:18;42.53;;;26.80;;
34317;SDS011;20582;52.196;20.952;2022-10-17T00:47:12;45.03;;;25.90;;
34317;SDS011;20582;52.196;20.952;2022-10-17T00:49:40;39.55;;;23.48;;
34317;SDS011;20582;52.196;20.952;2022-10-17T00:52:07;41.55;;;25.58;;
34317;SDS011;20582;52.196;20.952;2022-10-17T00:54:36;44.83;;;26.33;;
34317;SDS011;20582;52.196;20.952;2022-10-17T00:57:03;44.80;;;26.25;;
34317;SDS011;20582;52.196;20.952;2022-10-17T00:59:29;39.33;;;25.77;;
34317;SDS011;20582;52.196;20.952;2022-10-17T01:02:01;39.15;;;24.90;;
34317;SDS011;20582;52.196;20.952;2022-10-17T01:06:54;39.03;;;25.15;;
34317;SDS011;20582;52.196;20.952;2022-10-17T01:09:20;42.13;;;25.38;;
34317;SDS011;20582;52.196;20.952;2022-10-17T01:14:28;41.45;;;26.23;;
34317;SDS011;20582;52.196;20.952;2022-10-17T01:17:00;45.55;;;26.23;;
34317;SDS011;20582;52.196;20.952;2022-10-17T01:27:39;43.17;;;27.20;;
34317;SDS011;20582;52.196;20.952;2022-10-17T01:32:38;42.97;;;26.67;;
34317;SDS011;20582;52.196;20.952;2022-10-17T01:35:09;42.33;;;26.98;;
34317;SDS011;20582;52.196;20.952;2022-10-17T01:40:08;41.38;;;27.88;;
34317;SDS011;20582;52.196;20.952;2022-10-17T01:42:36;46.47;;;27.98;;
34317;SDS011;20582;52.196;20.952;2022-10-17T01:47:32;40.97;;;26.83;;
34317;SDS011;20582;52.196;20.952;2022-10-17T01:50:03;38.83;;;26.15;;
34317;SDS011;20582;52.196;20.952;2022-10-17T01:52:50;40.88;;;26.55;;
34317;SDS011;20582;52.196;20.952;2022-10-17T01:55:19;39.72;;;26.42;;
34317;SDS011;20582;52.196;20.952;2022-10-17T01:57:49;36.53;;;25.60;;
34317;SDS011;20582;52.196;20.952;2022-10-17T02:00:17;42.13;;;26.73;;
34317;SDS011;20582;52.196;20.952;2022-10-17T02:02:44;42.22;;;27.58;;
34317;SDS011;20582;52.196;20.952;2022-10-17T02:05:12;47.05;;;28.05;;
34317;SDS011;20582;52.196;20.952;2022-10-17T02:07:39;53.30;;;29.45;;
34317;SDS011;20582;52.196;20.952;2022-10-17T02:10:08;48.83;;;27.15;;
34317;SDS011;20582;52.196;20.952;2022-10-17T02:12:39;44.83;;;27.55;;
34317;SDS011;20582;52.196;20.952;2022-10-17T02:15:09;38.22;;;25.17;;
34317;SDS011;20582;52.196;20.952;2022-10-17T02:17:41;44.35;;;27.92;;
34317;SDS011;20582;52.196;20.952;2022-10-17T02:20:28;38.22;;;25.92;;
34317;SDS011;20582;52.196;20.952;2022-10-17T02:23:04;39.75;;;25.75;;
34317;SDS011;20582;52.196;20.952;2022-10-17T02:25:37;38.22;;;23.92;;
34317;SDS011;20582;52.196;20.952;2022-10-17T02:30:36;40.22;;;24.98;;
34317;SDS011;20582;52.196;20.952;2022-10-17T02:33:08;38.60;;;24.10;;
34317;SDS011;20582;52.196;20.952;2022-10-17T02:35:37;36.97;;;23.10;;
34317;SDS011;20582;52.196;20.952;2022-10-17T02:38:05;37.25;;;23.77;;
34317;SDS011;20582;52.196;20.952;2022-10-17T02:40:32;32.50;;;22.20;;
34317;SDS011;20582;52.196;20.952;2022-10-17T02:42:59;42.13;;;26.40;;
34317;SDS011;20582;52.196;20.952;2022-10-17T02:45:26;43.13;;;27.05;;
34317;SDS011;20582;52.196;20.952;2022-10-17T02:48:03;46.97;;;29.08;;
34317;SDS011;20582;52.196;20.952;2022-10-17T02:50:52;41.55;;;27.90;;
34317;SDS011;20582;52.196;20.952;2022-10-17T02:53:24;42.58;;;27.38;;
34317;SDS011;20582;52.196;20.952;2022-10-17T02:55:56;43.53;;;27.92;;
34317;SDS011;20582;52.196;20.952;2022-10-17T02:58:24;42.00;;;27.13;;
34317;SDS011;20582;52.196;20.952;2022-10-17T03:00:51;39.05;;;26.25;;
34317;SDS011;20582;52.196;20.952;2022-10-17T03:03:18;42.83;;;25.27;;
34317;SDS011;20582;52.196;20.952;2022-10-17T03:05:45;41.10;;;26.20;;
34317;SDS011;20582;52.196;20.952;2022-10-17T03:08:11;43.92;;;27.45;;
34317;SDS011;20582;52.196;20.952;2022-10-17T03:10:37;41.72;;;27.00;;
34317;SDS011;20582;52.196;20.952;2022-10-17T03:13:03;37.85;;;25.55;;
34317;SDS011;20582;52.196;20.952;2022-10-17T03:15:29;38.00;;;24.25;;
34317;SDS011;20582;52.196;20.952;2022-10-17T03:17:54;37.58;;;24.90;;
34317;SDS011;20582;52.196;20.952;2022-10-17T03:20:20;39.97;;;24.08;;
34317;SDS011;20582;52.196;20.952;2022-10-17T03:22:46;42.85;;;27.38;;
34317;SDS011;20582;52.196;20.952;2022-10-17T03:25:12;43.45;;;27.90;;
34317;SDS011;20582;52.196;20.952;2022-10-17T03:27:38;44.45;;;28.38;;
34317;SDS011;20582;52.196;20.952;2022-10-17T03:30:04;42.45;;;27.65;;
34317;SDS011;20582;52.196;20.952;2022-10-17T03:32:34;46.00;;;28.45;;
34317;SDS011;20582;52.196;20.952;2022-10-17T03:35:00;52.28;;;29.65;;
34317;SDS011;20582;52.196;20.952;2022-10-17T03:37:26;41.35;;;28.70;;
34317;SDS011;20582;52.196;20.952;2022-10-17T03:39:52;43.03;;;30.48;;
34317;SDS011;20582;52.196;20.952;2022-10-17T03:42:18;43.80;;;27.63;;
34317;SDS011;20582;52.196;20.952;2022-10-17T03:44:44;47.17;;;28.50;;
34317;SDS011;20582;52.196;20.952;2022-10-17T03:47:10;41.85;;;27.85;;
34317;SDS011;20582;52.196;20.952;2022-10-17T03:49:36;40.78;;;27.45;;
34317;SDS011;20582;52.196;20.952;2022-10-17T03:52:02;43.22;;;27.30;;
34317;SDS011;20582;52.196;20.952;2022-10-17T03:54:28;44.03;;;27.75;;
34317;SDS011;20582;52.196;20.952;2022-10-17T03:56:54;48.25;;;28.60;;
34317;SDS011;20582;52.196;20.952;2022-10-17T03:59:20;47.55;;;29.42;;
34317;SDS011;20582;52.196;20.952;2022-10-17T04:01:46;43.03;;;29.85;;
34317;SDS011;20582;52.196;20.952;2022-10-17T04:04:12;48.80;;;29.88;;
34317;SDS011;20582;52.196;20.952;2022-10-17T04:06:38;41.53;;;27.20;;
34317;SDS011;20582;52.196;20.952;2022-10-17T04:09:05;44.67;;;28.73;;
34317;SDS011;20582;52.196;20.952;2022-10-17T04:11:31;41.28;;;28.75;;
34317;SDS011;20582;52.196;20.952;2022-10-17T04:13:57;46.05;;;28.23;;
34317;SDS011;20582;52.196;20.952;2022-10-17T04:16:24;45.08;;;28.15;;
34317;SDS011;20582;52.196;20.952;2022-10-17T04:18:53;45.25;;;28.48;;
34317;SDS011;20582;52.196;20.952;2022-10-17T04:21:19;46.97;;;29.38;;
34317;SDS011;20582;52.196;20.952;2022-10-17T04:23:46;44.85;;;29.67;;
34317;SDS011;20582;52.196;20.952;2022-10-17T04:26:12;44.95;;;28.52;;
34317;SDS011;20582;52.196;20.952;2022-10-17T04:28:38;48.28;;;29.90;;
34317;SDS011;20582;52.196;20.952;2022-10-17T04:31:08;42.63;;;29.05;;
34317;SDS011;20582;52.196;20.952;2022-10-17T04:33:36;47.63;;;29.42;;
34317;SDS011;20582;52.196;20.952;2022-10-17T04:36:03;41.72;;;28.88;;
34317;SDS011;20582;52.196;20.952;2022-10-17T04:38:30;49.15;;;30.17;;
34317;SDS011;20582;52.196;20.952;2022-10-17T04:40:57;48.08;;;30.35;;
34317;SDS011;20582;52.196;20.952;2022-10-17T04:43:24;51.00;;;31.23;;
34317;SDS011;20582;52.196;20.952;2022-10-17T04:45:50;50.22;;;31.33;;
34317;SDS011;20582;52.196;20.952;2022-10-17T04:48:16;51.40;;;33.15;;
34317;SDS011;20582;52.196;20.952;2022-10-17T04:50:51;49.20;;;30.70;;
34317;SDS011;20582;52.196;20.952;2022-10-17T04:53:17;47.10;;;31.73;;
34317;SDS011;20582;52.196;20.952;2022-10-17T04:55:43;50.20;;;31.65;;
34317;SDS011;20582;52.196;20.952;2022-10-17T04:58:09;46.13;;;31.90;;
34317;SDS011;20582;52.196;20.952;2022-10-17T05:00:36;52.53;;;32.92;;
34317;SDS011;20582;52.196;20.952;2022-10-17T05:03:02;50.60;;;31.73;;
34317;SDS011;20582;52.196;20.952;2022-10-17T05:05:28;50.55;;;32.38;;
34317;SDS011;20582;52.196;20.952;2022-10-17T05:07:54;49.28;;;33.35;;
34317;SDS011;20582;52.196;20.952;2022-10-17T05:10:20;48.45;;;32.05;;
34317;SDS011;20582;52.196;20.952;2022-10-17T05:12:46;53.90;;;33.30;;
34317;SDS011;20582;52.196;20.952;2022-10-17T05:15:12;50.53;;;31.98;;
34317;SDS011;20582;52.196;20.952;2022-10-17T05:17:38;49.67;;;32.55;;
34317;SDS011;20582;52.196;20.952;2022-10-17T05:20:04;47.88;;;31.25;;
34317;SDS011;20582;52.196;20.952;2022-10-17T05:22:31;47.38;;;30.85;;
34317;SDS011;20582;52.196;20.952;2022-10-17T05:24:57;45.33;;;30.23;;
34317;SDS011;20582;52.196;20.952;2022-10-17T05:27:23;47.13;;;31.27;;
34317;SDS011;20582;52.196;20.952;2022-10-17T05:29:49;49.55;;;31.92;;
34317;SDS011;20582;52.196;20.952;2022-10-17T05:32:15;51.00;;;33.25;;
34317;SDS011;20582;52.196;20.952;2022-10-17T05:34:41;48.50;;;31.60;;
34317;SDS011;20582;52.196;20.952;2022-10-17T05:37:07;47.00;;;31.30;;
34317;SDS011;20582;52.196;20.952;2022-10-17T05:39:33;49.83;;;32.17;;
34317;SDS011;20582;52.196;20.952;2022-10-17T05:41:59;48.47;;;32.30;;
34317;SDS011;20582;52.196;20.952;2022-10-17T05:44:25;54.92;;;32.58;;
34317;SDS011;20582;52.196;20.952;2022-10-17T05:46:51;46.47;;;31.35;;
34317;SDS011;20582;52.196;20.952;2022-10-17T05:49:17;50.25;;;31.17;;
34317;SDS011;20582;52.196;20.952;2022-10-17T05:51:43;48.65;;;32.00;;
34317;SDS011;20582;52.196;20.952;2022-10-17T05:54:09;48.30;;;31.05;;
34317;SDS011;20582;52.196;20.952;2022-10-17T05:56:35;48.65;;;30.85;;
34317;SDS011;20582;52.196;20.952;2022-10-17T05:59:01;45.40;;;30.33;;
34317;SDS011;20582;52.196;20.952;2022-10-17T06:01:27;44.17;;;28.85;;
34317;SDS011;20582;52.196;20.952;2022-10-17T06:03:53;47.40;;;30.65;;
34317;SDS011;20582;52.196;20.952;2022-10-17T06:06:19;47.83;;;30.52;;
34317;SDS011;20582;52.196;20.952;2022-10-17T06:08:45;44.65;;;29.45;;
34317;SDS011;20582;52.196;20.952;2022-10-17T06:11:11;50.28;;;31.90;;
34317;SDS011;20582;52.196;20.952;2022-10-17T06:13:38;49.67;;;31.90;;
34317;SDS011;20582;52.196;20.952;2022-10-17T06:16:04;49.67;;;31.02;;
34317;SDS011;20582;52.196;20.952;2022-10-17T06:18:31;45.67;;;30.80;;
34317;SDS011;20582;52.196;20.952;2022-10-17T06:21:04;48.58;;;31.10;;
34317;SDS011;20582;52.196;20.952;2022-10-17T06:23:30;46.70;;;31.05;;
34317;SDS011;20582;52.196;20.952;2022-10-17T06:25:57;43.13;;;31.10;;
34317;SDS011;20582;52.196;20.952;2022-10-17T06:28:23;49.88;;;33.15;;
34317;SDS011;20582;52.196;20.952;2022-10-17T06:30:49;46.80;;;32.53;;
34317;SDS011;20582;52.196;20.952;2022-10-17T06:33:15;47.30;;;32.60;;
34317;SDS011;20582;52.196;20.952;2022-10-17T06:35:42;54.78;;;32.65;;
34317;SDS011;20582;52.196;20.952;2022-10-17T06:38:07;53.05;;;32.40;;
34317;SDS011;20582;52.196;20.952;2022-10-17T06:40:34;48.08;;;33.25;;
34317;SDS011;20582;52.196;20.952;2022-10-17T06:43:00;46.75;;;32.65;;
34317;SDS011;20582;52.196;20.952;2022-10-17T06:45:26;46.97;;;32.13;;
34317;SDS011;20582;52.196;20.952;2022-10-17T06:47:51;48.08;;;31.77;;
34317;SDS011;20582;52.196;20.952;2022-10-17T06:50:17;45.90;;;31.67;;
34317;SDS011;20582;52.196;20.952;2022-10-17T06:52:43;47.92;;;32.38;;
34317;SDS011;20582;52.196;20.952;2022-10-17T06:55:09;49.45;;;32.67;;
34317;SDS011;20582;52.196;20.952;2022-10-17T06:57:35;51.92;;;35.53;;
34317;SDS011;20582;52.196;20.952;2022-10-17T07:00:02;54.05;;;34.80;;
34317;SDS011;20582;52.196;20.952;2022-10-17T07:02:28;52.13;;;33.25;;
34317;SDS011;20582;52.196;20.952;2022-10-17T07:04:54;49.40;;;32.33;;
34317;SDS011;20582;52.196;20.952;2022-10-17T07:07:20;51.15;;;32.10;;
34317;SDS011;20582;52.196;20.952;2022-10-17T07:09:46;45.95;;;30.65;;
34317;SDS011;20582;52.196;20.952;2022-10-17T07:12:12;52.55;;;32.13;;
34317;SDS011;20582;52.196;20.952;2022-10-17T07:14:38;52.70;;;31.88;;
34317;SDS011;20582;52.196;20.952;2022-10-17T07:17:04;48.13;;;30.88;;
34317;SDS011;20582;52.196;20.952;2022-10-17T07:19:30;46.75;;;31.08;;
34317;SDS011;20582;52.196;20.952;2022-10-17T07:21:56;43.35;;;30.15;;
34317;SDS011;20582;52.196;20.952;2022-10-17T07:24:22;49.90;;;30.65;;
34317;SDS011;20582;52.196;20.952;2022-10-17T07:26:48;42.83;;;29.67;;
34317;SDS011;20582;52.196;20.952;2022-10-17T07:29:14;43.30;;;30.00;;
34317;SDS011;20582;52.196;20.952;2022-10-17T07:31:40;45.65;;;30.33;;
34317;SDS011;20582;52.196;20.952;2022-10-17T07:34:06;44.20;;;28.55;;
34317;SDS011;20582;52.196;20.952;2022-10-17T07:36:32;42.08;;;29.60;;
34317;SDS011;20582;52.196;20.952;2022-10-17T07:38:58;39.28;;;27.08;;
34317;SDS011;20582;52.196;20.952;2022-10-17T07:41:24;40.97;;;28.05;;
34317;SDS011;20582;52.196;20.952;2022-10-17T07:43:50;45.03;;;28.80;;
34317;SDS011;20582;52.196;20.952;2022-10-17T07:46:16;42.88;;;27.13;;
34317;SDS011;20582;52.196;20.952;2022-10-17T07:48:42;37.83;;;25.88;;
34317;SDS011;20582;52.196;20.952;2022-10-17T07:51:08;38.28;;;26.67;;
34317;SDS011;20582;52.196;20.952;2022-10-17T07:53:35;41.88;;;26.65;;
34317;SDS011;20582;52.196;20.952;2022-10-17T07:56:05;38.42;;;26.50;;
34317;SDS011;20582;52.196;20.952;2022-10-17T07:58:31;35.97;;;25.65;;
34317;SDS011;20582;52.196;20.952;2022-10-17T08:01:01;34.97;;;24.17;;
34317;SDS011;20582;52.196;20.952;2022-10-17T08:03:27;35.67;;;24.55;;
34317;SDS011;20582;52.196;20.952;2022-10-17T08:05:56;33.92;;;22.55;;
34317;SDS011;20582;52.196;20.952;2022-10-17T08:08:22;33.25;;;22.48;;
34317;SDS011;20582;52.196;20.952;2022-10-17T08:10:47;30.02;;;21.63;;
34317;SDS011;20582;52.196;20.952;2022-10-17T08:13:13;34.42;;;21.25;;
34317;SDS011;20582;52.196;20.952;2022-10-17T08:15:39;33.95;;;21.70;;
34317;SDS011;20582;52.196;20.952;2022-10-17T08:18:05;31.42;;;23.23;;
34317;SDS011;20582;52.196;20.952;2022-10-17T08:20:31;29.67;;;21.90;;
34317;SDS011;20582;52.196;20.952;2022-10-17T08:22:58;31.40;;;23.17;;
34317;SDS011;20582;52.196;20.952;2022-10-17T08:25:24;30.00;;;22.75;;
34317;SDS011;20582;52.196;20.952;2022-10-17T08:27:50;31.35;;;21.83;;
34317;SDS011;20582;52.196;20.952;2022-10-17T08:30:16;32.65;;;20.63;;
34317;SDS011;20582;52.196;20.952;2022-10-17T08:32:42;30.27;;;21.38;;
34317;SDS011;20582;52.196;20.952;2022-10-17T08:35:08;27.15;;;21.35;;
34317;SDS011;20582;52.196;20.952;2022-10-17T08:37:34;28.33;;;21.88;;
34317;SDS011;20582;52.196;20.952;2022-10-17T08:40:00;29.35;;;20.83;;
34317;SDS011;20582;52.196;20.952;2022-10-17T08:44:56;30.58;;;21.50;;
34317;SDS011;20582;52.196;20.952;2022-10-17T08:47:34;29.88;;;21.33;;
34317;SDS011;20582;52.196;20.952;2022-10-17T08:50:02;30.55;;;21.55;;
34317;SDS011;20582;52.196;20.952;2022-10-17T08:52:38;29.85;;;21.38;;
34317;SDS011;20582;52.196;20.952;2022-10-17T08:55:27;29.35;;;21.17;;
34317;SDS011;20582;52.196;20.952;2022-10-17T08:57:54;29.73;;;20.35;;
34317;SDS011;20582;52.196;20.952;2022-10-17T09:00:20;29.17;;;21.63;;
34317;SDS011;20582;52.196;20.952;2022-10-17T09:02:49;30.52;;;21.27;;
34317;SDS011;20582;52.196;20.952;2022-10-17T09:07:57;30.83;;;21.10;;
34317;SDS011;20582;52.196;20.952;2022-10-17T09:10:37;32.17;;;20.85;;
34317;SDS011;20582;52.196;20.952;2022-10-17T09:13:09;32.95;;;20.88;;
34317;SDS011;20582;52.196;20.952;2022-10-17T09:18:08;27.60;;;19.38;;
34317;SDS011;20582;52.196;20.952;2022-10-17T09:20:37;30.27;;;19.85;;
34317;SDS011;20582;52.196;20.952;2022-10-17T09:23:08;27.70;;;19.20;;
34317;SDS011;20582;52.196;20.952;2022-10-17T09:25:39;32.90;;;20.10;;
34317;SDS011;20582;52.196;20.952;2022-10-17T09:30:37;32.03;;;19.58;;
34317;SDS011;20582;52.196;20.952;2022-10-17T09:35:32;27.85;;;19.48;;
34317;SDS011;20582;52.196;20.952;2022-10-17T09:37:58;26.67;;;18.67;;
34317;SDS011;20582;52.196;20.952;2022-10-17T09:40:32;25.38;;;17.40;;
34317;SDS011;20582;52.196;20.952;2022-10-17T09:43:00;24.63;;;17.92;;
34317;SDS011;20582;52.196;20.952;2022-10-17T09:45:28;25.42;;;17.45;;
34317;SDS011;20582;52.196;20.952;2022-10-17T09:50:27;22.98;;;17.75;;
34317;SDS011;20582;52.196;20.952;2022-10-17T09:52:54;21.00;;;17.10;;
34317;SDS011;20582;52.196;20.952;2022-10-17T09:55:32;24.13;;;17.52;;
34317;SDS011;20582;52.196;20.952;2022-10-17T09:58:03;21.00;;;16.92;;
34317;SDS011;20582;52.196;20.952;2022-10-17T10:00:30;20.90;;;16.70;;
34317;SDS011;20582;52.196;20.952;2022-10-17T10:05:41;21.50;;;16.30;;
34317;SDS011;20582;52.196;20.952;2022-10-17T10:08:14;21.40;;;16.20;;
34317;SDS011;20582;52.196;20.952;2022-10-17T10:10:41;22.45;;;16.80;;
34317;SDS011;20582;52.196;20.952;2022-10-17T10:15:38;23.05;;;15.95;;
34317;SDS011;20582;52.196;20.952;2022-10-17T10:18:27;22.10;;;15.23;;
34317;SDS011;20582;52.196;20.952;2022-10-17T10:23:31;21.60;;;15.88;;
34317;SDS011;20582;52.196;20.952;2022-10-17T10:25:58;21.95;;;16.02;;
34317;SDS011;20582;52.196;20.952;2022-10-17T10:28:33;22.95;;;15.68;;
34317;SDS011;20582;52.196;20.952;2022-10-17T10:31:01;23.55;;;15.52;;
34317;SDS011;20582;52.196;20.952;2022-10-17T10:33:28;26.15;;;17.05;;
34317;SDS011;20582;52.196;20.952;2022-10-17T10:35:59;23.05;;;16.30;;
34317;SDS011;20582;52.196;20.952;2022-10-17T10:38:26;30.33;;;16.90;;
34317;SDS011;20582;52.196;20.952;2022-10-17T10:40:53;27.52;;;16.80;;
34317;SDS011;20582;52.196;20.952;2022-10-17T10:43:33;30.40;;;16.85;;
34317;SDS011;20582;52.196;20.952;2022-10-17T10:46:01;24.98;;;16.00;;
34317;SDS011;20582;52.196;20.952;2022-10-17T10:48:29;27.00;;;16.90;;
34317;SDS011;20582;52.196;20.952;2022-10-17T10:53:43;27.30;;;18.00;;
34317;SDS011;20582;52.196;20.952;2022-10-17T10:56:15;22.00;;;15.48;;
34317;SDS011;20582;52.196;20.952;2022-10-17T10:58:57;25.08;;;16.00;;
34317;SDS011;20582;52.196;20.952;2022-10-17T11:04:26;26.58;;;17.63;;
34317;SDS011;20582;52.196;20.952;2022-10-17T11:06:45;22.50;;;14.93;;
34317;SDS011;20582;52.196;20.952;2022-10-17T11:09:20;20.55;;;15.05;;
34317;SDS011;20582;52.196;20.952;2022-10-17T11:11:51;21.77;;;15.55;;
34317;SDS011;20582;52.196;20.952;2022-10-17T11:14:20;23.95;;;16.17;;
34317;SDS011;20582;52.196;20.952;2022-10-17T11:19:27;22.60;;;15.02;;
34317;SDS011;20582;52.196;20.952;2022-10-17T11:24:33;29.38;;;15.75;;
34317;SDS011;20582;52.196;20.952;2022-10-17T11:27:02;23.80;;;16.05;;
34317;SDS011;20582;52.196;20.952;2022-10-17T11:29:33;25.52;;;16.63;;
34317;SDS011;20582;52.196;20.952;2022-10-17T11:32:42;23.15;;;15.65;;
34317;SDS011;20582;52.196;20.952;2022-10-17T11:34:50;21.98;;;15.15;;
34317;SDS011;20582;52.196;20.952;2022-10-17T11:37:21;30.60;;;20.15;;
34317;SDS011;20582;52.196;20.952;2022-10-17T11:39:52;27.17;;;18.27;;
34317;SDS011;20582;52.196;20.952;2022-10-17T11:42:24;20.55;;;15.38;;
34317;SDS011;20582;52.196;20.952;2022-10-17T11:44:52;22.02;;;15.60;;
34317;SDS011;20582;52.196;20.952;2022-10-17T11:49:50;26.95;;;15.95;;
34317;SDS011;20582;52.196;20.952;2022-10-17T11:55:21;25.83;;;15.23;;
34317;SDS011;20582;52.196;20.952;2022-10-17T12:05:24;20.02;;;14.65;;
34317;SDS011;20582;52.196;20.952;2022-10-17T12:07:56;20.85;;;14.02;;
34317;SDS011;20582;52.196;20.952;2022-10-17T12:10:58;20.58;;;15.02;;
34317;SDS011;20582;52.196;20.952;2022-10-17T12:15:55;23.55;;;16.02;;
34317;SDS011;20582;52.196;20.952;2022-10-17T12:18:24;21.60;;;15.63;;
34317;SDS011;20582;52.196;20.952;2022-10-17T12:20:56;23.88;;;14.65;;
34317;SDS011;20582;52.196;20.952;2022-10-17T12:23:30;23.13;;;15.23;;
34317;SDS011;20582;52.196;20.952;2022-10-17T12:25:59;20.77;;;14.35;;
34317;SDS011;20582;52.196;20.952;2022-10-17T12:28:29;19.48;;;14.27;;
34317;SDS011;20582;52.196;20.952;2022-10-17T12:30:57;23.30;;;15.55;;
34317;SDS011;20582;52.196;20.952;2022-10-17T12:33:29;23.67;;;15.40;;
34317;SDS011;20582;52.196;20.952;2022-10-17T12:38:40;21.48;;;14.93;;
34317;SDS011;20582;52.196;20.952;2022-10-17T12:41:06;19.00;;;14.30;;
34317;SDS011;20582;52.196;20.952;2022-10-17T12:43:46;21.52;;;15.20;;
34317;SDS011;20582;52.196;20.952;2022-10-17T12:46:12;25.10;;;16.45;;
34317;SDS011;20582;52.196;20.952;2022-10-17T12:48:59;26.90;;;18.70;;
34317;SDS011;20582;52.196;20.952;2022-10-17T12:51:25;22.15;;;15.95;;
34317;SDS011;20582;52.196;20.952;2022-10-17T12:54:13;23.42;;;14.50;;
34317;SDS011;20582;52.196;20.952;2022-10-17T12:56:40;22.27;;;15.02;;
34317;SDS011;20582;52.196;20.952;2022-10-17T12:59:28;25.17;;;15.18;;
34317;SDS011;20582;52.196;20.952;2022-10-17T13:02:02;21.02;;;14.55;;
34317;SDS011;20582;52.196;20.952;2022-10-17T13:04:28;22.70;;;14.68;;
34317;SDS011;20582;52.196;20.952;2022-10-17T13:06:55;20.92;;;15.52;;
34317;SDS011;20582;52.196;20.952;2022-10-17T13:09:23;17.75;;;13.48;;
34317;SDS011;20582;52.196;20.952;2022-10-17T13:11:50;18.77;;;14.23;;
34317;SDS011;20582;52.196;20.952;2022-10-17T13:14:17;20.27;;;14.85;;
34317;SDS011;20582;52.196;20.952;2022-10-17T13:16:54;19.60;;;14.52;;
34317;SDS011;20582;52.196;20.952;2022-10-17T13:19:25;21.50;;;14.85;;
34317;SDS011;20582;52.196;20.952;2022-10-17T13:21:54;21.85;;;14.23;;
34317;SDS011;20582;52.196;20.952;2022-10-17T13:24:38;19.48;;;14.32;;
34317;SDS011;20582;52.196;20.952;2022-10-17T13:27:05;19.80;;;14.30;;
34317;SDS011;20582;52.196;20.952;2022-10-17T13:29:42;23.35;;;15.10;;
34317;SDS011;20582;52.196;20.952;2022-10-17T13:32:09;20.75;;;14.10;;
34317;SDS011;20582;52.196;20.952;2022-10-17T13:34:35;19.88;;;14.02;;
34317;SDS011;20582;52.196;20.952;2022-10-17T13:37:03;22.15;;;15.35;;
34317;SDS011;20582;52.196;20.952;2022-10-17T13:39:32;20.05;;;14.73;;
34317;SDS011;20582;52.196;20.952;2022-10-17T13:42:00;21.70;;;14.53;;
34317;SDS011;20582;52.196;20.952;2022-10-17T13:44:27;24.40;;;15.65;;
34317;SDS011;20582;52.196;20.952;2022-10-17T13:46:56;21.27;;;15.77;;
34317;SDS011;20582;52.196;20.952;2022-10-17T13:49:28;24.45;;;15.82;;
34317;SDS011;20582;52.196;20.952;2022-10-17T13:51:56;23.20;;;15.40;;
34317;SDS011;20582;52.196;20.952;2022-10-17T13:54:39;20.50;;;15.73;;
34317;SDS011;20582;52.196;20.952;2022-10-17T13:57:15;24.05;;;15.75;;
34317;SDS011;20582;52.196;20.952;2022-10-17T13:59:42;24.73;;;14.77;;
34317;SDS011;20582;52.196;20.952;2022-10-17T14:02:22;24.52;;;15.70;;
34317;SDS011;20582;52.196;20.952;2022-10-17T14:07:41;28.27;;;17.20;;
34317;SDS011;20582;52.196;20.952;2022-10-17T14:10:18;25.30;;;16.50;;
34317;SDS011;20582;52.196;20.952;2022-10-17T14:12:44;25.52;;;16.88;;
34317;SDS011;20582;52.196;20.952;2022-10-17T14:15:12;23.02;;;16.23;;
34317;SDS011;20582;52.196;20.952;2022-10-17T14:17:39;26.77;;;18.05;;
34317;SDS011;20582;52.196;20.952;2022-10-17T14:20:05;42.45;;;23.10;;
34317;SDS011;20582;52.196;20.952;2022-10-17T14:22:33;29.48;;;18.73;;
34317;SDS011;20582;52.196;20.952;2022-10-17T14:24:59;26.25;;;17.55;;
34317;SDS011;20582;52.196;20.952;2022-10-17T14:27:32;27.70;;;15.60;;
34317;SDS011;20582;52.196;20.952;2022-10-17T14:30:00;28.70;;;15.88;;
34317;SDS011;20582;52.196;20.952;2022-10-17T14:32:28;25.67;;;15.65;;
34317;SDS011;20582;52.196;20.952;2022-10-17T14:34:55;26.08;;;15.52;;
34317;SDS011;20582;52.196;20.952;2022-10-17T14:40:13;27.55;;;16.70;;
34317;SDS011;20582;52.196;20.952;2022-10-17T14:42:40;28.17;;;18.40;;
34317;SDS011;20582;52.196;20.952;2022-10-17T14:45:07;36.10;;;21.67;;
34317;SDS011;20582;52.196;20.952;2022-10-17T14:47:36;25.17;;;17.10;;
34317;SDS011;20582;52.196;20.952;2022-10-17T14:50:15;34.13;;;20.85;;
34317;SDS011;20582;52.196;20.952;2022-10-17T14:52:57;30.85;;;16.17;;
34317;SDS011;20582;52.196;20.952;2022-10-17T14:55:25;36.95;;;22.08;;
34317;SDS011;20582;52.196;20.952;2022-10-17T14:57:51;26.90;;;16.55;;
34317;SDS011;20582;52.196;20.952;2022-10-17T15:00:18;31.30;;;15.55;;
34317;SDS011;20582;52.196;20.952;2022-10-17T15:02:44;26.83;;;16.15;;
34317;SDS011;20582;52.196;20.952;2022-10-17T15:05:11;28.52;;;15.20;;
34317;SDS011;20582;52.196;20.952;2022-10-17T15:07:37;27.73;;;15.70;;
34317;SDS011;20582;52.196;20.952;2022-10-17T15:10:03;32.22;;;16.38;;
34317;SDS011;20582;52.196;20.952;2022-10-17T15:12:29;30.63;;;15.63;;
34317;SDS011;20582;52.196;20.952;2022-10-17T15:14:56;29.35;;;16.00;;
34317;SDS011;20582;52.196;20.952;2022-10-17T15:17:26;25.40;;;15.48;;
34317;SDS011;20582;52.196;20.952;2022-10-17T15:19:53;31.08;;;16.90;;
34317;SDS011;20582;52.196;20.952;2022-10-17T15:22:19;30.17;;;17.25;;
34317;SDS011;20582;52.196;20.952;2022-10-17T15:24:45;38.42;;;17.67;;
34317;SDS011;20582;52.196;20.952;2022-10-17T15:27:19;36.10;;;17.48;;
34317;SDS011;20582;52.196;20.952;2022-10-17T15:29:45;33.47;;;17.23;;
34317;SDS011;20582;52.196;20.952;2022-10-17T15:32:11;36.88;;;19.85;;
34317;SDS011;20582;52.196;20.952;2022-10-17T15:34:38;33.83;;;21.00;;
34317;SDS011;20582;52.196;20.952;2022-10-17T15:37:04;38.45;;;21.95;;
34317;SDS011;20582;52.196;20.952;2022-10-17T15:39:31;37.30;;;22.52;;